createdAt,value
2024-02-29T00:01:54.136Z,8.77
2024-02-29T00:04:21.804Z,8.90
2024-02-29T00:06:50.954Z,9.27
2024-02-29T00:09:19.622Z,8.43
2024-02-29T00:11:47.442Z,8.83
2024-02-29T00:14:14.847Z,8.20
2024-02-29T00:16:44.645Z,7.90
2024-02-29T00:19:12.149Z,7.60
2024-02-29T00:21:41.894Z,7.13
2024-02-29T00:24:11.256Z,7.70
2024-02-29T00:26:41.404Z,8.10
2024-02-29T00:29:08.985Z,9.07
2024-02-29T00:31:36.498Z,8.57
2024-02-29T00:34:05.428Z,8.40
2024-02-29T00:36:32.868Z,8.07
2024-02-29T00:39:06.136Z,7.53
2024-02-29T00:41:39.305Z,7.27
2024-02-29T00:44:06.732Z,7.43
2024-02-29T00:46:34.742Z,7.50
2024-02-29T00:49:02.183Z,7.50
2024-02-29T00:51:31.162Z,7.20
2024-02-29T00:53:58.613Z,6.53
2024-02-29T00:56:26.188Z,7.63
2024-02-29T00:58:53.639Z,6.87
2024-02-29T01:01:22.503Z,7.07
2024-02-29T01:03:51.215Z,6.30
2024-02-29T01:06:18.717Z,5.43
2024-02-29T01:08:47.468Z,5.87
2024-02-29T01:11:15.804Z,6.30
2024-02-29T01:13:43.221Z,6.40
2024-02-29T01:16:11.772Z,6.17
2024-02-29T01:18:41.250Z,6.13
2024-02-29T01:21:10.009Z,6.13
2024-02-29T01:23:38.776Z,5.83
2024-02-29T01:26:07.974Z,6.13
2024-02-29T01:28:35.387Z,5.93
2024-02-29T01:31:03.586Z,5.20
2024-02-29T01:33:31.198Z,5.20
2024-02-29T01:35:59.389Z,5.00
2024-02-29T01:38:27.140Z,5.30
2024-02-29T01:40:54.524Z,5.50
2024-02-29T01:43:25.230Z,5.07
2024-02-29T01:46:04.476Z,4.90
2024-02-29T01:48:32.896Z,4.57
2024-02-29T01:51:00.724Z,4.93
2024-02-29T01:53:28.188Z,5.60
2024-02-29T01:55:55.666Z,5.30
2024-02-29T01:58:23.643Z,5.37
2024-02-29T02:00:52.898Z,5.37
2024-02-29T02:03:20.564Z,5.30
2024-02-29T02:05:47.983Z,5.20
2024-02-29T02:08:17.754Z,4.87
2024-02-29T02:10:45.188Z,5.33
2024-02-29T02:13:12.721Z,4.90
2024-02-29T02:15:41.727Z,5.87
2024-02-29T02:18:10.549Z,5.27
2024-02-29T02:20:39.322Z,5.23
2024-02-29T02:23:08.296Z,5.37
2024-02-29T02:25:35.782Z,5.03
2024-02-29T02:28:04.143Z,5.17
2024-02-29T02:30:31.836Z,4.90
2024-02-29T02:33:00.725Z,4.87
2024-02-29T02:35:28.385Z,4.90
2024-02-29T02:37:57.124Z,5.13
2024-02-29T02:40:24.635Z,4.93
2024-02-29T02:42:52.531Z,5.20
2024-02-29T02:45:26.807Z,4.97
2024-02-29T02:47:54.270Z,4.77
2024-02-29T02:50:24.334Z,5.00
2024-02-29T02:52:51.735Z,4.97
2024-02-29T02:55:21.147Z,5.07
2024-02-29T02:57:48.691Z,5.40
2024-02-29T03:00:18.188Z,4.93
2024-02-29T03:02:45.836Z,4.70
2024-02-29T03:05:13.889Z,4.57
2024-02-29T03:07:42.382Z,4.83
2024-02-29T03:10:11.035Z,5.33
2024-02-29T03:12:44.215Z,4.60
2024-02-29T03:15:12.093Z,4.93
2024-02-29T03:17:39.544Z,5.40
2024-02-29T03:20:13.191Z,4.60
2024-02-29T03:22:40.995Z,5.10
2024-02-29T03:25:10.512Z,5.37
2024-02-29T03:27:38.070Z,5.10
2024-02-29T03:30:08.496Z,5.30
2024-02-29T03:32:36.086Z,5.40
2024-02-29T03:35:05.318Z,5.10
2024-02-29T03:37:33.564Z,5.07
2024-02-29T03:40:01.854Z,4.90
2024-02-29T03:42:30.581Z,5.30
2024-02-29T03:44:58.403Z,4.80
2024-02-29T03:47:27.200Z,4.57
2024-02-29T03:49:54.625Z,5.40
2024-02-29T03:52:22.936Z,5.03
2024-02-29T03:54:51.178Z,5.00
2024-02-29T03:57:18.579Z,4.97
2024-02-29T03:59:48.244Z,5.13
2024-02-29T04:02:15.973Z,4.67
2024-02-29T04:04:46.048Z,4.87
2024-02-29T04:07:13.525Z,5.30
2024-02-29T04:09:41.153Z,5.13
2024-02-29T04:12:08.625Z,5.33
2024-02-29T04:14:39.655Z,5.03
2024-02-29T04:17:07.639Z,5.90
2024-02-29T04:19:35.022Z,5.17
2024-02-29T04:22:03.869Z,5.13
2024-02-29T04:24:31.346Z,5.17
2024-02-29T04:26:58.788Z,5.80
2024-02-29T04:29:26.185Z,5.60
2024-02-29T04:31:53.577Z,5.07
2024-02-29T04:34:20.987Z,5.33
2024-02-29T04:36:48.828Z,5.30
2024-02-29T04:39:17.594Z,5.40
2024-02-29T04:41:46.574Z,5.87
2024-02-29T04:44:13.999Z,6.20
2024-02-29T04:46:42.530Z,5.20
2024-02-29T04:49:10.210Z,5.33
2024-02-29T04:51:38.796Z,5.30
2024-02-29T04:54:06.425Z,5.10
2024-02-29T04:56:36.544Z,5.47
2024-02-29T04:59:05.640Z,5.40
2024-02-29T05:01:33.230Z,5.13
2024-02-29T05:04:00.722Z,5.60
2024-02-29T05:06:29.066Z,5.93
2024-02-29T05:08:57.701Z,5.20
2024-02-29T05:11:25.666Z,4.90
2024-02-29T05:13:56.239Z,5.73
2024-02-29T05:16:23.712Z,5.57
2024-02-29T05:18:52.137Z,5.87
2024-02-29T05:21:20.831Z,5.60
2024-02-29T05:23:49.145Z,8.03
2024-02-29T05:26:18.087Z,7.40
2024-02-29T05:28:46.321Z,9.00
2024-02-29T05:31:15.705Z,9.23
2024-02-29T05:33:43.560Z,9.50
2024-02-29T05:36:11.013Z,8.30
2024-02-29T05:38:38.477Z,7.63
2024-02-29T05:41:05.995Z,6.60
2024-02-29T05:43:36.076Z,5.93
2024-02-29T05:46:04.398Z,7.50
2024-02-29T05:48:36.615Z,6.93
2024-02-29T05:51:04.446Z,6.80
2024-02-29T05:53:31.904Z,6.00
2024-02-29T05:55:59.324Z,7.57
2024-02-29T05:58:31.586Z,6.77
2024-02-29T06:00:59.264Z,7.00
2024-02-29T06:03:26.834Z,7.80
2024-02-29T06:05:55.575Z,6.70
2024-02-29T06:08:22.974Z,7.60
2024-02-29T06:10:50.646Z,6.67
2024-02-29T06:13:18.371Z,6.93
2024-02-29T06:15:46.677Z,7.70
2024-02-29T06:18:14.467Z,7.90
2024-02-29T06:20:41.960Z,7.30
2024-02-29T06:23:10.695Z,7.27
2024-02-29T06:25:38.242Z,7.47
2024-02-29T06:28:05.874Z,7.40
2024-02-29T06:30:33.960Z,7.63
2024-02-29T06:33:02.589Z,7.00
2024-02-29T06:35:30.632Z,7.10
2024-02-29T06:37:58.007Z,7.07
2024-02-29T06:40:26.807Z,7.20
2024-02-29T06:42:55.231Z,6.50
2024-02-29T06:45:22.685Z,7.00
2024-02-29T06:47:50.632Z,6.73
2024-02-29T06:50:18.174Z,6.70
2024-02-29T06:52:45.954Z,6.20
2024-02-29T06:55:13.612Z,5.87
2024-02-29T06:57:43.351Z,6.77
2024-02-29T07:00:11.736Z,6.37
2024-02-29T07:02:39.690Z,6.67
2024-02-29T07:05:09.582Z,6.63
2024-02-29T07:07:37.038Z,7.00
2024-02-29T07:10:05.732Z,6.33
2024-02-29T07:12:33.192Z,6.67
2024-02-29T07:15:01.905Z,7.03
2024-02-29T07:17:30.328Z,6.77
2024-02-29T07:19:57.794Z,7.30
2024-02-29T07:22:27.231Z,8.03
2024-02-29T07:24:55.401Z,8.77
2024-02-29T07:27:23.005Z,8.40
2024-02-29T07:29:50.382Z,8.63
2024-02-29T07:32:19.227Z,7.67
2024-02-29T07:34:46.619Z,6.67
2024-02-29T07:37:14.464Z,6.87
2024-02-29T07:39:41.983Z,7.17
2024-02-29T07:42:10.426Z,7.63
2024-02-29T07:44:37.911Z,7.17
2024-02-29T07:47:06.260Z,7.53
2024-02-29T07:49:35.021Z,9.10
2024-02-29T07:52:02.515Z,8.13
2024-02-29T07:54:30.195Z,8.13
2024-02-29T07:56:58.949Z,8.80
2024-02-29T07:59:27.671Z,9.57
2024-02-29T08:01:56.030Z,10.33
2024-02-29T08:04:23.570Z,9.33
2024-02-29T08:06:52.533Z,9.60
2024-02-29T08:09:20.445Z,8.67
2024-02-29T08:11:48.093Z,8.83
2024-02-29T08:14:18.210Z,7.93
2024-02-29T08:16:47.289Z,8.83
2024-02-29T08:19:14.783Z,9.50
2024-02-29T08:21:42.390Z,9.27
2024-02-29T08:24:11.170Z,9.03
2024-02-29T08:26:38.628Z,8.30
2024-02-29T08:29:06.062Z,9.17
2024-02-29T08:31:35.476Z,8.90
2024-02-29T08:34:03.351Z,9.80
2024-02-29T08:36:30.964Z,9.60
2024-02-29T08:38:59.611Z,10.03
2024-02-29T08:41:28.844Z,10.17
2024-02-29T08:43:56.243Z,10.80
2024-02-29T08:46:24.199Z,10.80
2024-02-29T08:48:51.717Z,10.07
2024-02-29T08:51:19.157Z,9.43
2024-02-29T08:53:46.552Z,9.70
2024-02-29T08:56:14.476Z,14.70
2024-02-29T08:58:44.184Z,15.63
2024-02-29T09:01:12.515Z,20.30
2024-02-29T09:03:39.962Z,20.53
2024-02-29T09:06:07.415Z,19.07
2024-02-29T09:08:34.814Z,27.57
2024-02-29T09:11:02.226Z,21.60
2024-02-29T09:13:35.282Z,20.73
2024-02-29T09:16:05.741Z,26.80
2024-02-29T09:18:33.483Z,35.80
2024-02-29T09:21:01.645Z,31.57
2024-02-29T09:23:29.927Z,29.37
2024-02-29T09:25:58.087Z,20.97
2024-02-29T09:28:26.797Z,20.87
2024-02-29T09:30:54.920Z,18.00
2024-02-29T09:33:25.793Z,19.20
2024-02-29T09:35:58.654Z,18.70
2024-02-29T09:38:26.250Z,14.13
2024-02-29T09:41:03.012Z,11.83
2024-02-29T09:43:36.792Z,10.40
2024-02-29T09:46:07.542Z,10.37
2024-02-29T09:48:36.513Z,9.20
2024-02-29T09:51:05.136Z,8.33
2024-02-29T09:53:34.916Z,8.17
2024-02-29T09:56:04.026Z,7.47
2024-02-29T09:58:33.534Z,7.90
2024-02-29T10:01:00.964Z,8.00
2024-02-29T10:03:28.669Z,8.03
2024-02-29T10:06:00.147Z,7.13
2024-02-29T10:08:29.342Z,7.60
2024-02-29T10:10:57.095Z,7.47
2024-02-29T10:13:25.313Z,7.77
2024-02-29T10:15:52.968Z,8.07
2024-02-29T10:18:20.589Z,7.70
2024-02-29T10:20:48.542Z,7.73
2024-02-29T10:23:17.548Z,8.27
2024-02-29T10:25:45.419Z,7.43
2024-02-29T10:28:14.320Z,7.27
2024-02-29T10:30:41.878Z,7.03
2024-02-29T10:33:10.736Z,7.30
2024-02-29T10:35:39.858Z,7.33
2024-02-29T10:38:09.596Z,7.00
2024-02-29T10:40:39.836Z,6.77
2024-02-29T10:43:11.761Z,7.13
2024-02-29T10:45:43.761Z,6.47
2024-02-29T10:48:14.171Z,6.73
2024-02-29T10:50:54.409Z,7.63
2024-02-29T10:53:27.455Z,7.33
2024-02-29T10:55:59.067Z,6.80
2024-02-29T10:58:30.329Z,6.97
2024-02-29T11:00:58.805Z,6.13
2024-02-29T11:03:26.945Z,6.13
2024-02-29T11:05:54.525Z,6.47
2024-02-29T11:08:22.160Z,6.57
2024-02-29T11:10:49.701Z,6.43
2024-02-29T11:13:21.415Z,6.77
2024-02-29T11:15:51.326Z,7.40
2024-02-29T11:18:22.422Z,7.43
2024-02-29T11:20:50.104Z,7.40
2024-02-29T11:23:22.895Z,7.70
2024-02-29T11:25:52.706Z,7.20
2024-02-29T11:28:21.604Z,7.63
2024-02-29T11:31:07.432Z,8.40
2024-02-29T11:33:34.868Z,7.57
2024-02-29T11:36:04.361Z,8.60
2024-02-29T11:38:36.555Z,8.47
2024-02-29T11:41:18.341Z,8.80
2024-02-29T11:43:47.654Z,8.70
2024-02-29T11:46:16.837Z,8.70
2024-02-29T11:48:44.684Z,7.40
2024-02-29T11:51:12.147Z,8.13
2024-02-29T11:53:40.929Z,7.93
2024-02-29T11:56:15.236Z,8.73
2024-02-29T11:58:44.474Z,8.60
2024-02-29T12:01:14.858Z,8.60
2024-02-29T12:03:43.068Z,8.33
2024-02-29T12:06:10.568Z,8.47
2024-02-29T12:08:40.418Z,8.03
2024-02-29T12:11:09.505Z,8.00
2024-02-29T12:13:38.608Z,8.00
2024-02-29T12:16:06.909Z,7.73
2024-02-29T12:18:36.951Z,7.50
2024-02-29T12:21:04.960Z,7.43
2024-02-29T12:23:32.818Z,8.03
2024-02-29T12:26:08.095Z,7.33
2024-02-29T12:28:35.648Z,7.07
2024-02-29T12:31:06.017Z,7.80
2024-02-29T12:33:33.781Z,7.30
2024-02-29T12:36:03.118Z,7.17
2024-02-29T12:38:32.937Z,7.30
2024-02-29T12:41:00.470Z,7.63
2024-02-29T12:43:28.093Z,7.80
2024-02-29T12:45:55.691Z,8.07
2024-02-29T12:48:24.129Z,7.33
2024-02-29T12:50:56.307Z,8.20
2024-02-29T12:53:25.944Z,9.30
2024-02-29T12:55:54.605Z,8.23
2024-02-29T12:58:22.158Z,8.00
2024-02-29T13:00:50.012Z,8.83
2024-02-29T13:03:20.104Z,7.93
2024-02-29T13:05:47.606Z,7.00
2024-02-29T13:08:15.831Z,8.07
2024-02-29T13:10:44.837Z,7.20
2024-02-29T13:13:12.582Z,7.10
2024-02-29T13:15:40.491Z,7.17
2024-02-29T13:18:08.013Z,7.27
2024-02-29T13:20:36.537Z,7.03
2024-02-29T13:23:03.965Z,7.20
2024-02-29T13:25:31.736Z,7.17
2024-02-29T13:28:00.649Z,6.97
2024-02-29T13:30:28.057Z,5.97
2024-02-29T13:32:55.537Z,7.20
2024-02-29T13:35:22.957Z,6.67
2024-02-29T13:37:50.399Z,6.57
2024-02-29T13:40:17.939Z,7.17
2024-02-29T13:42:46.355Z,7.23
2024-02-29T13:45:15.956Z,6.43
2024-02-29T13:47:50.168Z,7.03
2024-02-29T13:50:19.708Z,6.93
2024-02-29T13:52:47.158Z,6.70
2024-02-29T13:55:14.691Z,7.50
2024-02-29T13:57:43.518Z,6.77
2024-02-29T14:00:12.003Z,7.17
2024-02-29T14:02:43.628Z,6.80
2024-02-29T14:05:12.301Z,7.27
2024-02-29T14:07:40.052Z,6.77
2024-02-29T14:10:08.761Z,6.53
2024-02-29T14:12:37.061Z,7.57
2024-02-29T14:15:05.686Z,7.03
2024-02-29T14:17:33.551Z,6.87
2024-02-29T14:20:04.030Z,6.87
2024-02-29T14:22:31.647Z,7.20
2024-02-29T14:24:59.408Z,7.77
2024-02-29T14:27:26.836Z,7.43
2024-02-29T14:29:54.246Z,7.83
2024-02-29T14:32:22.487Z,8.20
2024-02-29T14:34:49.909Z,7.27
2024-02-29T14:37:19.315Z,7.27
2024-02-29T14:39:47.698Z,7.47
2024-02-29T14:42:15.511Z,8.30
2024-02-29T14:44:47.409Z,7.73
2024-02-29T14:47:15.871Z,7.87
2024-02-29T14:49:43.351Z,7.63
2024-02-29T14:52:10.851Z,8.60
2024-02-29T14:54:42.464Z,8.13
2024-02-29T14:57:10.984Z,7.63
2024-02-29T14:59:40.105Z,8.03
2024-02-29T15:02:07.893Z,8.47
2024-02-29T15:04:38.827Z,9.07
2024-02-29T15:07:06.803Z,9.13
2024-02-29T15:09:35.294Z,9.30
2024-02-29T15:12:04.316Z,9.17
2024-02-29T15:14:31.974Z,11.37
2024-02-29T15:17:00.385Z,12.97
2024-02-29T15:19:28.363Z,12.07
2024-02-29T15:21:56.008Z,13.43
2024-02-29T15:24:25.498Z,14.77
2024-02-29T15:26:59.741Z,12.67
2024-02-29T15:29:28.557Z,13.57
2024-02-29T15:31:56.288Z,16.47
2024-02-29T15:34:25.102Z,15.07
2024-02-29T15:36:54.597Z,16.50
2024-02-29T15:39:23.095Z,15.03
2024-02-29T15:41:50.644Z,15.33
2024-02-29T15:44:19.831Z,15.03
2024-02-29T15:46:48.736Z,17.37
2024-02-29T15:49:16.270Z,15.00
2024-02-29T15:51:44.123Z,15.17
2024-02-29T15:54:11.555Z,18.23
2024-02-29T15:56:39.437Z,19.73
2024-02-29T15:59:06.983Z,15.20
2024-02-29T16:01:34.500Z,12.93
2024-02-29T16:04:03.327Z,13.93
2024-02-29T16:06:30.741Z,15.17
2024-02-29T16:09:07.706Z,13.80
2024-02-29T16:11:40.619Z,12.37
2024-02-29T16:14:08.857Z,12.30
2024-02-29T16:16:36.327Z,12.83
2024-02-29T16:19:06.071Z,12.07
2024-02-29T16:21:33.502Z,12.03
2024-02-29T16:24:00.903Z,12.77
2024-02-29T16:26:29.727Z,12.40
2024-02-29T16:28:57.271Z,13.80
2024-02-29T16:31:24.801Z,12.30
2024-02-29T16:33:54.254Z,13.20
2024-02-29T16:36:23.075Z,13.97
2024-02-29T16:38:50.586Z,13.47
2024-02-29T16:41:18.010Z,14.73
2024-02-29T16:43:46.457Z,14.43
2024-02-29T16:46:17.759Z,13.27
2024-02-29T16:48:48.405Z,13.03
2024-02-29T16:51:16.739Z,14.30
2024-02-29T16:53:48.317Z,14.27
2024-02-29T16:56:16.321Z,13.17
2024-02-29T16:58:43.881Z,14.47
2024-02-29T17:01:11.675Z,15.43
2024-02-29T17:03:39.166Z,17.30
2024-02-29T17:06:06.737Z,21.17
2024-02-29T17:08:34.167Z,17.83
2024-02-29T17:11:03.091Z,16.27
2024-02-29T17:13:31.289Z,15.37
2024-02-29T17:15:59.764Z,14.13
2024-02-29T17:18:28.478Z,16.10
2024-02-29T17:21:00.193Z,18.20
2024-02-29T17:23:27.711Z,19.13
2024-02-29T17:25:56.700Z,18.27
2024-02-29T17:28:25.561Z,15.37
2024-02-29T17:30:54.560Z,14.77
2024-02-29T17:33:22.121Z,15.77
2024-02-29T17:35:49.594Z,15.10
2024-02-29T17:38:17.888Z,15.60
2024-02-29T17:40:45.879Z,15.20
2024-02-29T17:43:17.069Z,14.73
2024-02-29T17:45:47.074Z,12.80
2024-02-29T17:48:14.623Z,12.67
2024-02-29T17:50:42.284Z,11.80
2024-02-29T17:53:09.880Z,12.57
2024-02-29T17:55:37.321Z,12.17
2024-02-29T17:58:05.285Z,12.30
2024-02-29T18:00:32.743Z,15.83
2024-02-29T18:03:02.540Z,23.67
2024-02-29T18:05:30.314Z,29.50
2024-02-29T18:08:02.584Z,27.40
2024-02-29T18:10:35.443Z,30.27
2024-02-29T18:13:04.038Z,27.23
2024-02-29T18:15:36.242Z,17.20
2024-02-29T18:18:05.445Z,13.63
2024-02-29T18:20:34.425Z,11.23
2024-02-29T18:23:03.034Z,11.93
2024-02-29T18:25:30.934Z,10.07
2024-02-29T18:27:59.360Z,9.77
2024-02-29T18:30:27.493Z,9.57
2024-02-29T18:32:57.515Z,9.10
2024-02-29T18:35:26.297Z,9.63
2024-02-29T18:37:55.194Z,9.53
2024-02-29T18:40:22.850Z,9.47
2024-02-29T18:42:51.691Z,9.40
2024-02-29T18:45:20.314Z,14.50
2024-02-29T18:47:47.814Z,15.47
2024-02-29T18:50:14.311Z,11.37
2024-02-29T18:52:43.051Z,11.23
2024-02-29T18:55:11.646Z,9.97
2024-02-29T18:57:40.234Z,10.43
2024-02-29T19:00:09.580Z,9.57
2024-02-29T19:02:38.223Z,9.80
2024-02-29T19:05:06.365Z,10.00
2024-02-29T19:07:33.994Z,9.50
2024-02-29T19:10:02.921Z,9.03
2024-02-29T19:12:32.700Z,9.77
2024-02-29T19:15:00.164Z,8.93
2024-02-29T19:17:28.456Z,8.97
2024-02-29T19:19:56.658Z,9.70
2024-02-29T19:22:24.156Z,8.93
2024-02-29T19:24:51.630Z,10.03
2024-02-29T19:27:21.843Z,9.47
2024-02-29T19:29:52.605Z,11.17
2024-02-29T19:32:20.931Z,10.80
2024-02-29T19:34:49.831Z,10.70
2024-02-29T19:37:17.441Z,10.80
2024-02-29T19:39:48.030Z,11.93
2024-02-29T19:42:15.766Z,10.80
2024-02-29T19:44:44.827Z,10.67
2024-02-29T19:47:12.226Z,11.70
2024-02-29T19:49:40.712Z,15.67
2024-02-29T19:52:08.199Z,14.23
2024-02-29T19:54:38.212Z,14.43
2024-02-29T19:57:06.340Z,20.80
2024-02-29T19:59:33.794Z,19.77
2024-02-29T20:02:02.589Z,22.00
2024-02-29T20:04:30.787Z,17.93
2024-02-29T20:06:58.649Z,16.27
2024-02-29T20:09:26.144Z,14.13
2024-02-29T20:11:54.462Z,14.90
2024-02-29T20:14:22.097Z,13.67
2024-02-29T20:16:50.570Z,13.80
2024-02-29T20:19:19.455Z,13.30
2024-02-29T20:21:48.371Z,12.73
2024-02-29T20:24:16.794Z,14.10
2024-02-29T20:26:45.802Z,13.53
2024-02-29T20:29:13.272Z,13.27
2024-02-29T20:31:40.726Z,13.60
2024-02-29T20:34:08.763Z,13.83
2024-02-29T20:36:38.624Z,13.27
2024-02-29T20:39:08.906Z,13.80
2024-02-29T20:41:36.542Z,13.97
2024-02-29T20:44:04.369Z,13.77
2024-02-29T20:46:33.360Z,13.03
2024-02-29T20:49:00.862Z,13.37
2024-02-29T20:51:29.395Z,13.23
2024-02-29T20:53:58.156Z,13.77
2024-02-29T20:56:25.903Z,14.13
2024-02-29T20:58:53.331Z,13.97
2024-02-29T21:01:21.640Z,13.97
2024-02-29T21:03:50.545Z,15.13
2024-02-29T21:06:23.602Z,13.87
2024-02-29T21:08:51.053Z,13.20
2024-02-29T21:11:21.218Z,13.27
2024-02-29T21:13:49.291Z,11.67
2024-02-29T21:16:16.752Z,12.90
2024-02-29T21:18:44.472Z,13.03
2024-02-29T21:21:12.608Z,12.93
2024-02-29T21:23:41.137Z,14.20
2024-02-29T21:26:08.635Z,13.10
2024-02-29T21:28:37.946Z,14.43
2024-02-29T21:31:05.928Z,14.47
2024-02-29T21:33:33.423Z,14.50
2024-02-29T21:36:00.860Z,13.70
2024-02-29T21:38:28.414Z,14.60
2024-02-29T21:40:56.613Z,16.70
2024-02-29T21:43:24.257Z,14.33
2024-02-29T21:45:53.205Z,15.27
2024-02-29T21:48:20.719Z,17.00
2024-02-29T21:50:49.505Z,18.17
2024-02-29T21:53:16.923Z,18.37
2024-02-29T21:55:44.595Z,19.00
2024-02-29T21:58:12.342Z,17.40
2024-02-29T22:00:39.990Z,19.13
2024-02-29T22:03:09.008Z,20.53
2024-02-29T22:05:36.819Z,19.13
2024-02-29T22:08:04.396Z,20.03
2024-02-29T22:10:31.951Z,19.83
2024-02-29T22:12:59.478Z,20.23
2024-02-29T22:15:27.666Z,21.70
2024-02-29T22:17:56.773Z,21.97
2024-02-29T22:20:26.419Z,21.07
2024-02-29T22:22:53.813Z,19.17
2024-02-29T22:25:22.000Z,22.43
2024-02-29T22:27:49.709Z,21.87
2024-02-29T22:30:17.898Z,21.60
2024-02-29T22:32:45.403Z,21.07
2024-02-29T22:35:13.691Z,22.23
2024-02-29T22:37:43.045Z,23.10
2024-02-29T22:40:12.467Z,22.90
2024-02-29T22:42:40.772Z,22.20
2024-02-29T22:45:09.820Z,21.30
2024-02-29T22:47:37.228Z,22.67
2024-02-29T22:50:05.607Z,20.93
2024-02-29T22:52:34.705Z,21.97
2024-02-29T22:55:03.611Z,22.20
2024-02-29T22:57:31.057Z,22.03
2024-02-29T22:59:59.492Z,21.70
2024-02-29T23:02:29.199Z,22.87
2024-02-29T23:04:56.638Z,19.83
2024-02-29T23:07:24.076Z,21.77
2024-02-29T23:09:51.523Z,20.63
2024-02-29T23:12:20.279Z,21.60
2024-02-29T23:14:47.733Z,20.67
2024-02-29T23:17:15.183Z,22.73
2024-02-29T23:19:42.601Z,20.37
2024-02-29T23:22:10.023Z,20.57
2024-02-29T23:24:38.516Z,19.50
2024-02-29T23:27:05.943Z,21.70
2024-02-29T23:29:35.487Z,20.37
2024-02-29T23:32:02.959Z,21.00
2024-02-29T23:34:31.435Z,21.10
2024-02-29T23:36:59.648Z,20.53
2024-02-29T23:39:27.998Z,20.63
2024-02-29T23:41:55.370Z,21.33
2024-02-29T23:44:22.824Z,20.40
2024-02-29T23:46:51.569Z,20.73
2024-02-29T23:49:19.067Z,20.40
2024-02-29T23:51:47.323Z,20.47
2024-02-29T23:54:14.829Z,20.57
2024-02-29T23:56:42.225Z,20.80
2024-02-29T23:59:09.663Z,19.73
